createdAt,value
2023-03-05T00:00:10.537Z,0
2023-03-05T00:10:16.739Z,0
2023-03-05T00:20:23.159Z,0
2023-03-05T00:30:29.248Z,0
2023-03-05T00:40:35.569Z,0
2023-03-05T00:50:41.979Z,0
2023-03-05T01:00:48.031Z,0
2023-03-05T01:10:54.432Z,0
2023-03-05T01:21:00.678Z,0
2023-03-05T01:31:06.873Z,0
2023-03-05T01:41:13.226Z,0
2023-03-05T01:51:19.502Z,0
2023-03-05T02:01:25.732Z,0
2023-03-05T02:11:32.038Z,0
2023-03-05T02:21:38.249Z,0
2023-03-05T02:31:44.560Z,0
2023-03-05T02:41:50.780Z,0
2023-03-05T02:51:57.029Z,0
2023-03-05T03:02:03.401Z,0
2023-03-05T03:12:09.678Z,0
2023-03-05T03:22:15.890Z,0
2023-03-05T03:32:22.158Z,0
2023-03-05T03:42:28.445Z,0
2023-03-05T03:52:34.655Z,0
2023-03-05T04:02:40.974Z,0
2023-03-05T04:12:47.152Z,0
2023-03-05T04:22:53.477Z,0
2023-03-05T04:32:59.681Z,0
2023-03-05T04:43:05.957Z,0
2023-03-05T04:53:12.239Z,0
2023-03-05T05:03:18.502Z,0
2023-03-05T05:13:24.737Z,0
2023-03-05T05:23:31.003Z,0
2023-03-05T05:33:37.205Z,0
2023-03-05T05:43:43.420Z,0
2023-03-05T05:53:49.707Z,0
2023-03-05T06:03:55.864Z,5
2023-03-05T06:14:02.050Z,11
2023-03-05T06:24:08.290Z,28
2023-03-05T06:34:14.469Z,45
2023-03-05T06:44:20.686Z,56
2023-03-05T06:54:27.013Z,67
2023-03-05T07:04:33.109Z,56
2023-03-05T07:14:39.306Z,78
2023-03-05T07:24:45.612Z,95
2023-03-05T07:44:57.929Z,123
2023-03-05T07:55:04.196Z,157
2023-03-05T08:05:10.372Z,213
2023-03-05T08:15:16.753Z,213
2023-03-05T08:25:22.804Z,146
2023-03-05T08:35:29.001Z,208
2023-03-05T08:45:35.211Z,236
2023-03-05T08:55:41.486Z,275
2023-03-05T09:05:47.642Z,202
2023-03-05T09:15:53.858Z,236
2023-03-05T09:26:00.066Z,292
2023-03-05T09:36:06.276Z,466
2023-03-05T09:46:12.462Z,399
2023-03-05T09:56:18.782Z,495
2023-03-05T10:06:24.894Z,697
2023-03-05T10:16:31.115Z,669
2023-03-05T10:26:37.331Z,331
2023-03-05T10:36:43.541Z,315
2023-03-05T10:46:49.763Z,371
2023-03-05T10:56:55.952Z,320
2023-03-05T11:07:02.245Z,241
2023-03-05T11:17:08.391Z,230
2023-03-05T11:27:14.613Z,286
2023-03-05T11:37:20.790Z,416
2023-03-05T11:47:27.018Z,545
2023-03-05T11:57:33.218Z,686
2023-03-05T12:07:39.453Z,1018
2023-03-05T12:17:45.735Z,663
2023-03-05T12:27:52.069Z,590
2023-03-05T12:37:58.184Z,551
2023-03-05T12:48:04.370Z,686
2023-03-05T12:58:10.616Z,675
2023-03-05T13:08:16.843Z,540
2023-03-05T13:18:22.983Z,405
2023-03-05T13:28:29.372Z,360
2023-03-05T13:38:35.695Z,388
2023-03-05T13:48:41.772Z,354
2023-03-05T13:58:48.013Z,371
2023-03-05T14:08:54.330Z,326
2023-03-05T14:19:00.510Z,286
2023-03-05T14:29:06.735Z,208
2023-03-05T14:39:12.961Z,230
2023-03-05T14:49:19.117Z,219
2023-03-05T14:59:25.551Z,196
2023-03-05T15:09:31.756Z,168
2023-03-05T15:19:37.856Z,135
2023-03-05T15:29:44.079Z,112
2023-03-05T15:39:50.271Z,90
2023-03-05T15:49:56.556Z,95
2023-03-05T16:00:02.769Z,90
2023-03-05T16:10:08.928Z,73
2023-03-05T16:20:15.370Z,50
2023-03-05T16:30:21.508Z,45
2023-03-05T16:40:27.836Z,28
2023-03-05T16:50:33.011Z,11
2023-03-05T17:00:39.297Z,5
2023-03-05T17:10:45.574Z,0
2023-03-05T17:20:51.768Z,0
2023-03-05T17:30:57.908Z,0
2023-03-05T17:41:04.108Z,0
2023-03-05T17:51:10.445Z,0
2023-03-05T18:01:16.711Z,0
2023-03-05T18:11:22.967Z,0
2023-03-05T18:21:29.263Z,0
2023-03-05T18:31:35.437Z,0
2023-03-05T18:41:41.717Z,0
2023-03-05T18:51:48.007Z,0
2023-03-05T19:01:54.237Z,0
2023-03-05T19:12:00.477Z,0
2023-03-05T19:22:06.876Z,0
2023-03-05T19:32:13.070Z,0
2023-03-05T19:42:19.449Z,0
2023-03-05T19:52:25.715Z,0
2023-03-05T20:02:31.831Z,0
2023-03-05T20:12:38.052Z,0
2023-03-05T20:22:44.339Z,0
2023-03-05T20:32:50.751Z,0
2023-03-05T20:42:57.039Z,0
2023-03-05T20:53:03.308Z,0
2023-03-05T21:03:09.532Z,0
2023-03-05T21:13:15.909Z,0
2023-03-05T21:23:22.042Z,0
2023-03-05T21:33:28.382Z,0
2023-03-05T21:43:34.583Z,0
2023-03-05T21:53:40.884Z,0
2023-03-05T22:03:47.090Z,0
2023-03-05T22:13:53.369Z,0
2023-03-05T22:23:59.617Z,0
2023-03-05T22:34:05.915Z,0
2023-03-05T22:44:12.175Z,0
2023-03-05T22:54:18.551Z,0
2023-03-05T23:04:24.671Z,0
2023-03-05T23:14:30.946Z,0
2023-03-05T23:24:37.215Z,0
2023-03-05T23:34:43.481Z,0
2023-03-05T23:44:49.725Z,0
2023-03-05T23:54:56.003Z,0
